createdAt,value
2022-09-28T00:00:34.777Z,34.78536
2022-09-28T00:05:35.766Z,34.82065
2022-09-28T00:10:36.662Z,34.88004
2022-09-28T00:15:37.605Z,34.93874
2022-09-28T00:20:38.537Z,34.98568
2022-09-28T00:25:39.508Z,35.04424
2022-09-28T00:30:40.419Z,35.0552
2022-09-28T00:35:41.362Z,35.1189
2022-09-28T00:40:42.544Z,35.10657
2022-09-28T00:45:43.780Z,35.1172
2022-09-28T00:50:44.866Z,35.07549
2022-09-28T00:55:45.852Z,35.05768
2022-09-28T01:00:46.827Z,35.07009
2022-09-28T01:05:47.795Z,35.11122
2022-09-28T01:10:48.758Z,35.07016
2022-09-28T01:15:49.674Z,35.13474
2022-09-28T01:20:50.609Z,35.14565
2022-09-28T01:25:51.521Z,35.11012
2022-09-28T01:30:52.403Z,35.13475
2022-09-28T01:35:53.361Z,35.22843
2022-09-28T01:40:54.324Z,35.21591
2022-09-28T01:45:55.337Z,35.3159
2022-09-28T01:50:56.296Z,35.23322
2022-09-28T01:55:57.262Z,35.25046
2022-09-28T02:00:58.225Z,35.2205
2022-09-28T02:05:59.187Z,35.30261
2022-09-28T02:11:00.166Z,35.24297
2022-09-28T02:16:01.194Z,35.29027
2022-09-28T02:21:02.251Z,35.31948
2022-09-28T02:26:03.278Z,35.29611
2022-09-28T02:31:04.281Z,35.35011
2022-09-28T02:36:05.316Z,35.40933
2022-09-28T02:41:06.405Z,35.46064
2022-09-28T02:46:07.463Z,35.6132
2022-09-28T02:51:08.474Z,35.42641
2022-09-28T02:56:09.445Z,35.61468
2022-09-28T03:01:10.439Z,35.5795
2022-09-28T03:06:11.438Z,35.69716
2022-09-28T03:11:12.354Z,35.69126
2022-09-28T03:16:13.298Z,35.73918
2022-09-28T03:21:14.298Z,35.82125
2022-09-28T03:26:15.313Z,35.82686
2022-09-28T03:31:16.356Z,35.79804
2022-09-28T03:36:17.356Z,35.85078
2022-09-28T03:41:18.283Z,35.79787
2022-09-28T03:46:19.360Z,35.73899
2022-09-28T03:51:20.349Z,35.57348
2022-09-28T03:56:21.289Z,35.53901
2022-09-28T04:01:22.311Z,35.48079
2022-09-28T04:06:23.241Z,35.51616
2022-09-28T04:11:24.183Z,35.51621
2022-09-28T04:16:25.194Z,35.52236
2022-09-28T04:21:26.248Z,35.56319
2022-09-28T04:26:27.171Z,35.60416
2022-09-28T04:31:28.157Z,35.60415
2022-09-28T04:36:29.070Z,35.60998
2022-09-28T04:41:30.019Z,35.6396
2022-09-28T04:46:30.945Z,35.68062
2022-09-28T04:51:31.866Z,35.73986
2022-09-28T04:56:32.810Z,35.69256
2022-09-28T05:01:33.867Z,35.65809
2022-09-28T05:06:34.839Z,35.35386
2022-09-28T05:11:35.781Z,35.13815
2022-09-28T05:16:36.839Z,34.95472
2022-09-28T05:21:37.788Z,35.12574
2022-09-28T05:26:38.755Z,35.40465
2022-09-28T05:31:39.726Z,35.63444
2022-09-28T05:36:40.703Z,35.69473
2022-09-28T05:41:41.610Z,35.75392
2022-09-28T05:46:42.499Z,35.86025
2022-09-28T05:51:43.717Z,35.93609
2022-09-28T05:56:44.668Z,35.99485
2022-09-28T06:01:45.578Z,36.14099
2022-09-28T06:06:46.488Z,36.08778
2022-09-28T06:11:47.398Z,35.88831
2022-09-28T06:16:48.475Z,35.84807
2022-09-28T06:21:49.432Z,36.00035
2022-09-28T06:26:50.378Z,35.94728
2022-09-28T06:31:51.282Z,35.92909
2022-09-28T06:36:52.339Z,35.88644
2022-09-28T06:41:53.262Z,35.7219
2022-09-28T06:46:54.176Z,35.72737
2022-09-28T06:51:55.475Z,35.6427
2022-09-28T06:56:56.444Z,35.15272
2022-09-28T07:01:57.400Z,34.84923
2022-09-28T07:06:58.386Z,34.65994
2022-09-28T07:11:59.329Z,34.13966
2022-09-28T07:17:12.370Z,34.0664
2022-09-28T07:22:18.952Z,33.87814
2022-09-28T07:27:20.531Z,33.37636
2022-09-28T07:32:21.502Z,32.2086
2022-09-28T07:37:22.462Z,32.54538
2022-09-28T07:42:23.386Z,32.85396
2022-09-28T07:47:24.304Z,33.10189
2022-09-28T07:52:25.238Z,32.79549
2022-09-28T07:57:26.169Z,32.65672
2022-09-28T08:02:27.131Z,32.32286
2022-09-28T08:07:28.123Z,31.94144
2022-09-28T08:12:29.019Z,31.87693
2022-09-28T08:17:29.932Z,31.29774
2022-09-28T08:22:30.844Z,30.59547
2022-09-28T08:27:31.842Z,30.48908
2022-09-28T08:32:32.843Z,29.98483
2022-09-28T08:37:33.779Z,30.04698
2022-09-28T08:42:34.739Z,29.98847
2022-09-28T08:47:35.708Z,29.80249
2022-09-28T08:52:36.686Z,29.40048
2022-09-28T08:57:37.678Z,29.40955
2022-09-28T09:02:38.663Z,29.6192
2022-09-28T09:07:39.602Z,29.2459
2022-09-28T09:12:40.581Z,29.41643
2022-09-28T09:17:41.523Z,29.21628
2022-09-28T09:22:42.444Z,29.05404
2022-09-28T09:27:43.750Z,28.92835
2022-09-28T09:32:44.756Z,28.25592
2022-09-28T09:37:45.714Z,27.10938
2022-09-28T09:42:46.642Z,26.05778
2022-09-28T09:47:47.534Z,25.53641
2022-09-28T09:52:48.539Z,25.58427
2022-09-28T09:57:49.531Z,26.25156
2022-09-28T10:02:50.479Z,26.14564
2022-09-28T10:07:51.423Z,25.92641
2022-09-28T10:12:52.353Z,25.59172
2022-09-28T10:17:53.264Z,25.3929
2022-09-28T10:22:54.237Z,25.96361
2022-09-28T10:27:55.205Z,26.39194
2022-09-28T10:32:56.284Z,26.6209
2022-09-28T10:37:57.406Z,26.84513
2022-09-28T10:42:58.464Z,27.21877
2022-09-28T10:47:59.460Z,27.72688
2022-09-28T10:53:00.399Z,27.9844
2022-09-28T10:58:01.465Z,28.30319
2022-09-28T11:03:02.415Z,28.69028
2022-09-28T11:08:03.376Z,28.95897
2022-09-28T11:13:04.324Z,29.04668
2022-09-28T11:18:05.221Z,29.35177
2022-09-28T11:23:06.145Z,29.49667
2022-09-28T11:28:07.099Z,30.06304
2022-09-28T11:33:08.017Z,30.81728
2022-09-28T11:38:08.954Z,31.07445
2022-09-28T11:43:10.703Z,31.2039
2022-09-28T11:48:13.252Z,31.23874
2022-09-28T11:53:14.315Z,31.03688
2022-09-28T11:58:15.354Z,31.17642
2022-09-28T12:03:16.566Z,31.11698
2022-09-28T12:08:17.688Z,31.37454
2022-09-28T12:13:18.690Z,31.40627
2022-09-28T12:18:19.705Z,31.46728
2022-09-28T12:23:20.699Z,31.498
2022-09-28T12:28:21.661Z,31.27066
2022-09-28T12:33:22.590Z,31.41799
2022-09-28T12:38:23.497Z,30.95178
2022-09-28T12:43:24.414Z,30.90289
2022-09-28T12:48:25.369Z,30.81828
2022-09-28T12:58:31.952Z,30.91104
2022-09-28T13:08:33.360Z,31.62321
2022-09-28T13:13:34.304Z,31.43271
2022-09-28T13:18:35.238Z,31.07992
2022-09-28T13:23:36.394Z,30.99095
2022-09-28T13:28:37.406Z,30.98151
2022-09-28T13:33:38.334Z,31.09265
2022-09-28T13:38:39.226Z,31.19866
2022-09-28T13:43:40.128Z,31.21061
2022-09-28T13:48:41.019Z,31.44311
2022-09-28T13:53:42.007Z,31.59408
2022-09-28T13:58:43.112Z,31.66314
2022-09-28T14:03:44.341Z,31.6893
2022-09-28T14:08:45.531Z,31.46445
2022-09-28T14:13:46.581Z,31.17399
2022-09-28T14:18:47.618Z,31.06328
2022-09-28T14:23:48.628Z,30.79586
2022-09-28T14:28:49.654Z,30.34591
2022-09-28T14:33:50.644Z,30.57737
2022-09-28T14:38:51.562Z,30.66053
2022-09-28T14:43:52.500Z,30.62291
2022-09-28T14:48:53.437Z,30.59598
2022-09-28T14:53:54.336Z,30.65389
2022-09-28T14:58:55.282Z,30.43675
2022-09-28T15:03:56.310Z,30.46147
2022-09-28T15:08:57.313Z,30.29092
2022-09-28T15:13:58.218Z,30.26779
2022-09-28T15:18:59.165Z,30.14624
2022-09-28T15:24:00.115Z,29.85162
2022-09-28T15:29:01.178Z,29.95748
2022-09-28T15:34:02.117Z,29.79769
2022-09-28T15:39:03.003Z,29.82921
2022-09-28T15:44:03.924Z,29.9263
2022-09-28T15:49:04.852Z,30.09904
2022-09-28T15:54:05.773Z,30.23155
2022-09-28T15:59:06.925Z,30.35267
2022-09-28T16:04:07.878Z,30.54916
2022-09-28T16:09:09.433Z,30.65648
2022-09-28T16:14:10.391Z,30.85418
2022-09-28T16:19:11.729Z,31.06249
2022-09-28T16:24:12.781Z,31.24781
2022-09-28T16:29:13.899Z,31.60888
2022-09-28T16:34:14.788Z,31.79256
2022-09-28T16:39:15.953Z,32.21967
2022-09-28T16:44:16.886Z,32.51518
2022-09-28T16:49:18.053Z,32.76881
2022-09-28T16:54:19.091Z,32.94559
2022-09-28T16:59:20.196Z,33.08662
2022-09-28T17:04:21.145Z,33.22861
2022-09-28T17:09:22.078Z,33.44672
2022-09-28T17:14:23.013Z,33.63022
2022-09-28T17:19:23.932Z,33.77754
2022-09-28T17:24:24.884Z,33.84729
2022-09-28T17:29:25.827Z,33.92338
2022-09-28T17:34:26.719Z,33.84668
2022-09-28T17:39:27.645Z,33.9538
2022-09-28T17:44:28.609Z,34.07248
2022-09-28T17:49:29.530Z,34.06602
2022-09-28T17:54:30.482Z,33.9666
2022-09-28T17:59:31.531Z,34.00281
2022-09-28T18:04:51.248Z,34.0622
2022-09-28T18:09:53.430Z,34.05102
2022-09-28T18:14:54.340Z,34.08049
2022-09-28T18:19:55.262Z,34.09863
2022-09-28T18:24:56.199Z,34.08757
2022-09-28T18:29:57.157Z,34.16442
2022-09-28T18:34:58.059Z,34.25319
2022-09-28T18:39:58.987Z,34.31296
2022-09-28T18:44:59.886Z,34.42497
2022-09-28T18:50:00.792Z,34.34226
2022-09-28T18:55:01.927Z,34.4785
2022-09-28T19:00:03.045Z,34.57771
2022-09-28T19:05:04.010Z,34.50645
2022-09-28T19:10:04.939Z,34.51834
2022-09-28T19:15:05.855Z,34.63759
2022-09-28T19:20:06.790Z,34.67917
2022-09-28T19:25:07.710Z,34.77909
2022-09-28T19:30:08.663Z,34.8444
2022-09-28T19:35:09.669Z,35.00365
2022-09-28T19:40:10.896Z,35.01546
2022-09-28T19:45:11.817Z,35.01502
2022-09-28T19:50:12.749Z,34.98543
2022-09-28T19:55:13.687Z,35.06815
2022-09-28T20:00:14.638Z,35.12133
2022-09-28T20:05:15.600Z,35.22201
2022-09-28T20:10:16.666Z,35.19298
2022-09-28T20:15:17.681Z,35.22904
2022-09-28T20:20:18.606Z,35.25263
2022-09-28T20:25:19.567Z,35.16467
2022-09-28T20:30:20.515Z,35.21222
2022-09-28T20:35:30.617Z,35.20693
2022-09-28T20:40:34.150Z,35.34357
2022-09-28T20:45:35.079Z,35.52147
2022-09-28T20:50:36.057Z,35.71577
2022-09-28T20:55:37.034Z,35.92781
2022-09-28T21:00:38.233Z,36.04529
2022-09-28T21:05:39.162Z,36.06345
2022-09-28T21:10:40.086Z,36.21007
2022-09-28T21:15:41.202Z,36.16231
2022-09-28T21:20:42.170Z,36.32706
2022-09-28T21:25:43.110Z,36.42699
2022-09-28T21:30:44.499Z,36.53815
2022-09-28T21:35:45.684Z,36.53815
2022-09-28T21:40:46.808Z,36.56171
2022-09-28T21:45:47.806Z,36.61412
2022-09-28T21:50:48.780Z,36.51952
2022-09-28T21:55:49.721Z,36.40141
2022-09-28T22:00:50.669Z,36.42466
2022-09-28T22:05:51.581Z,36.35378
2022-09-28T22:10:52.563Z,36.48357
2022-09-28T22:15:53.613Z,36.43794
2022-09-28T22:20:54.573Z,36.56744
2022-09-28T22:25:55.497Z,36.644
2022-09-28T22:30:56.614Z,36.68521
2022-09-28T22:35:57.658Z,36.68526
2022-09-28T22:40:58.709Z,36.60826
2022-09-28T22:45:59.837Z,36.65621
2022-09-28T22:51:00.839Z,36.82018
2022-09-28T22:56:01.939Z,36.82651
2022-09-28T23:01:03.063Z,36.89143
2022-09-28T23:06:04.007Z,36.97946
2022-09-28T23:11:05.049Z,37.04409
2022-09-28T23:16:06.091Z,37.03279
2022-09-28T23:21:07.185Z,36.99798
2022-09-28T23:26:08.302Z,37.13864
2022-09-28T23:31:09.395Z,36.99249
2022-09-28T23:36:10.377Z,37.08058
2022-09-28T23:41:11.327Z,36.95269
2022-09-28T23:46:12.325Z,37.06439
2022-09-28T23:51:13.300Z,37.11751
2022-09-28T23:56:14.323Z,37.1181
